createdAt,value
2022-12-20T00:01:54.180Z,97095.19
2022-12-20T00:04:22.489Z,97092.41
2022-12-20T00:06:50.612Z,97081.94
2022-12-20T00:09:18.745Z,97079.97
2022-12-20T00:11:48.181Z,97072.47
2022-12-20T00:14:16.338Z,97074.47
2022-12-20T00:16:44.579Z,97072.38
2022-12-20T00:19:13.292Z,97060.13
2022-12-20T00:21:41.422Z,97060.13
2022-12-20T00:24:09.592Z,97060.63
2022-12-20T00:26:39.005Z,97061.09
2022-12-20T00:29:08.520Z,97060.47
2022-12-20T00:31:36.663Z,97068.84
2022-12-20T00:34:04.890Z,97058.66
2022-12-20T00:36:34.269Z,97049.53
2022-12-20T00:39:03.099Z,97053.78
2022-12-20T00:41:33.882Z,97058.84
2022-12-20T00:44:02.550Z,97062.25
2022-12-20T00:46:34.292Z,97046.66
2022-12-20T00:49:02.781Z,97039.53
2022-12-20T00:51:32.761Z,97051.63
2022-12-20T00:54:01.069Z,97048.19
2022-12-20T00:56:29.237Z,97040.34
2022-12-20T00:58:59.886Z,97034.63
2022-12-20T01:01:34.406Z,97045.94
2022-12-20T01:04:03.259Z,97062.63
2022-12-20T01:06:32.483Z,97076.53
2022-12-20T01:09:01.584Z,97077.69
2022-12-20T01:11:33.287Z,97072.47
2022-12-20T01:14:04.990Z,97074.09
2022-12-20T01:16:39.319Z,97066.88
2022-12-20T01:19:09.655Z,97057.75
2022-12-20T01:21:39.764Z,97049.41
2022-12-20T01:24:08.181Z,97046.00
2022-12-20T01:26:36.295Z,97051.97
2022-12-20T01:29:04.406Z,97055.22
2022-12-20T01:31:34.753Z,97046.38
2022-12-20T01:34:03.158Z,97047.72
2022-12-20T01:36:34.462Z,97047.72
2022-12-20T01:39:05.416Z,97042.03
2022-12-20T01:41:36.101Z,97044.84
2022-12-20T01:44:06.709Z,97065.44
2022-12-20T01:46:37.273Z,97055.47
2022-12-20T01:49:12.139Z,97058.38
2022-12-20T01:51:45.606Z,97047.09
2022-12-20T01:54:19.335Z,97034.47
2022-12-20T01:56:53.546Z,97036.72
2022-12-20T01:59:21.918Z,97030.59
2022-12-20T02:01:51.680Z,97026.44
2022-12-20T02:04:19.900Z,97022.38
2022-12-20T02:06:47.900Z,97024.44
2022-12-20T02:09:17.343Z,97022.63
2022-12-20T02:12:09.775Z,97021.00
2022-12-20T02:14:56.243Z,97027.59
2022-12-20T02:17:42.373Z,97031.38
2022-12-20T02:20:49.831Z,97016.03
2022-12-20T02:23:46.037Z,97010.44
2022-12-20T02:26:46.814Z,97013.44
2022-12-20T02:29:26.227Z,97019.09
2022-12-20T02:32:05.984Z,97024.06
2022-12-20T02:34:38.675Z,97019.31
2022-12-20T02:37:06.857Z,97004.03
2022-12-20T02:39:38.535Z,96996.00
2022-12-20T02:42:10.523Z,97007.09
2022-12-20T02:45:00.315Z,97016.69
2022-12-20T02:47:37.389Z,96999.81
2022-12-20T02:50:08.242Z,96984.09
2022-12-20T02:52:37.587Z,96984.97
2022-12-20T02:55:07.969Z,96993.81
2022-12-20T02:57:47.134Z,96972.25
2022-12-20T03:00:19.213Z,96978.47
2022-12-20T03:03:08.252Z,96980.03
2022-12-20T03:05:45.188Z,96981.91
2022-12-20T03:08:13.468Z,96998.63
2022-12-20T03:10:41.641Z,96986.16
2022-12-20T03:13:10.133Z,96996.53
2022-12-20T03:15:44.435Z,96990.19
2022-12-20T03:18:14.401Z,96981.56
2022-12-20T03:20:42.574Z,96962.03
2022-12-20T03:23:10.907Z,96956.81
2022-12-20T03:25:39.279Z,96943.16
2022-12-20T03:28:09.177Z,96968.72
2022-12-20T03:30:37.723Z,96965.91
2022-12-20T03:33:05.954Z,96980.66
2022-12-20T03:35:36.882Z,96973.44
2022-12-20T03:38:05.227Z,96969.06
2022-12-20T03:40:33.341Z,96973.25
2022-12-20T03:43:02.291Z,96971.06
2022-12-20T03:45:30.648Z,96963.84
2022-12-20T03:47:58.810Z,96960.75
2022-12-20T03:50:29.615Z,96953.81
2022-12-20T03:52:59.138Z,96953.25
2022-12-20T03:55:27.828Z,96950.81
2022-12-20T03:57:56.235Z,96951.34
2022-12-20T04:00:31.962Z,96948.28
2022-12-20T04:03:19.455Z,96952.59
2022-12-20T04:05:47.629Z,96946.91
2022-12-20T04:08:17.193Z,96928.63
2022-12-20T04:10:59.364Z,96935.19
2022-12-20T04:13:32.650Z,96929.56
2022-12-20T04:16:01.595Z,96947.09
2022-12-20T04:18:33.559Z,96953.69
2022-12-20T04:21:03.000Z,96958.13
2022-12-20T04:23:35.129Z,96955.78
2022-12-20T04:26:03.920Z,96958.28
2022-12-20T04:28:34.258Z,96951.19
2022-12-20T04:31:03.832Z,96950.81
2022-12-20T04:33:36.402Z,96933.44
2022-12-20T04:36:05.419Z,96932.84
2022-12-20T04:38:39.017Z,96934.94
2022-12-20T04:41:07.536Z,96925.81
2022-12-20T04:43:46.706Z,96917.31
2022-12-20T04:46:15.987Z,96908.81
2022-12-20T04:48:57.248Z,96904.75
2022-12-20T04:51:27.003Z,96908.81
2022-12-20T04:53:58.935Z,96916.94
2022-12-20T04:56:41.291Z,96908.44
2022-12-20T04:59:12.576Z,96911.88
2022-12-20T05:01:43.399Z,96901.66
2022-12-20T05:04:15.991Z,96907.25
2022-12-20T05:06:44.142Z,96898.84
2022-12-20T05:09:13.826Z,96898.03
2022-12-20T05:11:42.002Z,96905.88
2022-12-20T05:14:10.787Z,96900.28
2022-12-20T05:16:39.059Z,96895.75
2022-12-20T05:19:07.962Z,96892.00
2022-12-20T05:21:58.399Z,96889.38
2022-12-20T05:24:45.708Z,96895.41
2022-12-20T05:27:25.686Z,96894.78
2022-12-20T05:29:53.921Z,96885.81
2022-12-20T05:32:22.714Z,96889.88
2022-12-20T05:34:51.322Z,96884.44
2022-12-20T05:37:20.910Z,96886.47
2022-12-20T05:39:52.567Z,96880.81
2022-12-20T05:42:23.661Z,96874.25
2022-12-20T05:44:53.903Z,96879.28
2022-12-20T05:47:23.420Z,96875.66
2022-12-20T05:49:59.532Z,96871.09
2022-12-20T05:52:29.044Z,96874.66
2022-12-20T05:54:58.771Z,96864.00
2022-12-20T05:57:33.019Z,96853.34
2022-12-20T06:00:01.679Z,96858.13
2022-12-20T06:02:33.509Z,96862.16
2022-12-20T06:05:04.761Z,96869.50
2022-12-20T06:07:32.922Z,96868.00
2022-12-20T06:10:03.155Z,96864.44
2022-12-20T06:12:45.254Z,96858.41
2022-12-20T06:15:15.709Z,96864.38
2022-12-20T06:17:44.025Z,96860.38
2022-12-20T06:20:13.467Z,96864.59
2022-12-20T06:22:45.276Z,96872.09
2022-12-20T06:25:17.432Z,96871.41
2022-12-20T06:27:45.772Z,96863.00
2022-12-20T06:30:18.158Z,96870.91
2022-12-20T06:33:12.522Z,96875.09
2022-12-20T06:35:41.577Z,96874.66
2022-12-20T06:38:09.779Z,96872.75
2022-12-20T06:40:40.210Z,96871.75
2022-12-20T06:43:09.865Z,96875.97
2022-12-20T06:45:41.959Z,96869.53
2022-12-20T06:48:15.840Z,96872.63
2022-12-20T06:50:48.059Z,96869.72
2022-12-20T06:53:21.683Z,96860.94
2022-12-20T06:55:51.901Z,96855.75
2022-12-20T06:58:21.021Z,96850.31
2022-12-20T07:00:50.225Z,96856.19
2022-12-20T07:03:18.513Z,96866.13
2022-12-20T07:05:52.067Z,96874.59
2022-12-20T07:08:20.341Z,96873.44
2022-12-20T07:10:50.310Z,96867.22
2022-12-20T07:13:18.488Z,96873.66
2022-12-20T07:15:47.032Z,96866.84
2022-12-20T07:18:15.421Z,96865.22
2022-12-20T07:20:43.463Z,96866.84
2022-12-20T07:23:11.657Z,96857.75
2022-12-20T07:25:39.840Z,96860.22
2022-12-20T07:28:09.616Z,96854.78
2022-12-20T07:30:38.505Z,96863.63
2022-12-20T07:33:06.692Z,96856.34
2022-12-20T07:35:34.795Z,96861.16
2022-12-20T07:38:02.910Z,96868.47
2022-12-20T07:40:31.874Z,96870.84
2022-12-20T07:43:00.012Z,96865.16
2022-12-20T07:45:29.525Z,96859.78
2022-12-20T07:48:03.255Z,96868.47
2022-12-20T07:50:36.703Z,96864.22
2022-12-20T07:53:07.638Z,96863.22
2022-12-20T07:55:37.182Z,96863.97
2022-12-20T07:58:13.717Z,96864.03
2022-12-20T08:00:45.187Z,96863.97
2022-12-20T08:03:18.210Z,96868.03
2022-12-20T08:05:57.329Z,96864.22
2022-12-20T08:08:26.194Z,96868.88
2022-12-20T08:10:54.440Z,96852.34
2022-12-20T08:13:22.627Z,96857.78
2022-12-20T08:15:52.128Z,96856.41
2022-12-20T08:18:20.304Z,96854.25
2022-12-20T08:20:48.486Z,96854.47
2022-12-20T08:23:16.754Z,96844.56
2022-12-20T08:25:44.891Z,96842.31
2022-12-20T08:28:13.002Z,96844.56
2022-12-20T08:30:41.177Z,96843.16
2022-12-20T08:33:10.835Z,96841.09
2022-12-20T08:35:38.897Z,96841.72
2022-12-20T08:38:07.905Z,96838.72
2022-12-20T08:40:36.123Z,96835.47
2022-12-20T08:43:10.024Z,96834.63
2022-12-20T08:45:38.517Z,96829.59
2022-12-20T08:48:06.771Z,96817.13
2022-12-20T08:50:36.299Z,96817.41
2022-12-20T08:53:08.435Z,96817.41
2022-12-20T08:55:36.889Z,96807.72
2022-12-20T08:58:05.018Z,96804.94
2022-12-20T09:00:33.916Z,96816.81
2022-12-20T09:03:02.224Z,96809.19
2022-12-20T09:05:30.393Z,96824.50
2022-12-20T09:07:59.895Z,96808.56
2022-12-20T09:10:32.927Z,96792.63
2022-12-20T09:13:01.063Z,96796.50
2022-12-20T09:15:32.342Z,96800.66
2022-12-20T09:18:00.639Z,96801.31
2022-12-20T09:20:30.473Z,96802.97
2022-12-20T09:23:01.920Z,96828.00
2022-12-20T09:25:30.494Z,96816.69
2022-12-20T09:27:58.904Z,96819.53
2022-12-20T09:30:27.032Z,96824.41
2022-12-20T09:32:55.172Z,96822.00
2022-12-20T09:35:23.659Z,96811.56
2022-12-20T09:37:51.691Z,96797.59
2022-12-20T09:40:25.287Z,96787.91
2022-12-20T09:42:53.790Z,96805.69
2022-12-20T09:45:28.702Z,96799.69
2022-12-20T09:47:56.897Z,96787.34
2022-12-20T09:50:44.727Z,96795.47
2022-12-20T09:53:47.732Z,96792.78
2022-12-20T09:56:23.585Z,96773.44
2022-12-20T09:59:09.147Z,96782.75
2022-12-20T10:01:40.067Z,96787.41
2022-12-20T10:04:20.356Z,96785.16
2022-12-20T10:07:08.353Z,96802.16
2022-12-20T10:10:04.436Z,96790.03
2022-12-20T10:12:44.469Z,96789.78
2022-12-20T10:15:22.095Z,96780.50
2022-12-20T10:18:21.200Z,96776.50
2022-12-20T10:21:01.603Z,96768.63
2022-12-20T10:23:38.278Z,96769.44
2022-12-20T10:26:12.266Z,96769.03
2022-12-20T10:28:42.111Z,96769.25
2022-12-20T10:31:17.409Z,96757.34
2022-12-20T10:33:46.687Z,96754.53
2022-12-20T10:36:27.475Z,96758.34
2022-12-20T10:38:58.228Z,96753.88
2022-12-20T10:41:28.672Z,96762.00
2022-12-20T10:44:02.488Z,96753.31
2022-12-20T10:46:39.717Z,96754.31
2022-12-20T10:49:33.867Z,96739.78
2022-12-20T10:52:04.942Z,96741.81
2022-12-20T10:54:38.595Z,96730.88
2022-12-20T10:57:20.105Z,96733.13
2022-12-20T10:59:54.959Z,96732.72
2022-12-20T11:02:36.993Z,96730.28
2022-12-20T11:05:24.411Z,96721.19
2022-12-20T11:10:45.908Z,96711.09
2022-12-20T11:13:24.224Z,96713.31
2022-12-20T11:15:57.768Z,96709.88
2022-12-20T11:18:41.287Z,96708.69
2022-12-20T11:21:28.337Z,96704.41
2022-12-20T11:24:09.740Z,96701.00
2022-12-20T11:27:04.377Z,96701.00
2022-12-20T11:30:11.150Z,96688.44
2022-12-20T11:33:11.101Z,96681.38
2022-12-20T11:35:52.168Z,96681.97
2022-12-20T11:38:37.565Z,96670.66
2022-12-20T11:41:19.565Z,96665.81
2022-12-20T11:47:18.333Z,96640.34
2022-12-20T11:50:13.830Z,96646.00
2022-12-20T11:52:49.663Z,96652.66
2022-12-20T11:55:22.734Z,96650.84
2022-12-20T11:58:18.109Z,96662.78
2022-12-20T12:00:54.830Z,96671.25
2022-12-20T12:03:31.289Z,96671.06
2022-12-20T12:06:05.749Z,96661.97
2022-12-20T12:08:45.291Z,96656.31
2022-12-20T12:12:03.929Z,96650.44
2022-12-20T12:14:09.547Z,96644.97
2022-12-20T12:16:44.677Z,96632.66
2022-12-20T12:19:15.675Z,96633.03
2022-12-20T12:21:50.418Z,96637.69
2022-12-20T12:24:26.222Z,96641.34
2022-12-20T12:26:55.389Z,96638.09
2022-12-20T12:29:23.809Z,96634.69
2022-12-20T12:31:58.516Z,96640.72
2022-12-20T12:34:52.362Z,96633.66
2022-12-20T12:37:49.793Z,96642.78
2022-12-20T12:40:56.485Z,96640.72
2022-12-20T12:43:51.228Z,96642.34
2022-12-20T12:46:26.082Z,96619.91
2022-12-20T12:49:00.746Z,96617.06
2022-12-20T12:51:35.771Z,96596.66
2022-12-20T12:54:23.081Z,96585.75
2022-12-20T12:56:52.603Z,96579.84
2022-12-20T12:59:51.822Z,96578.81
2022-12-20T13:02:49.915Z,96570.72
2022-12-20T13:05:36.540Z,96574.19
2022-12-20T13:08:15.727Z,96588.56
2022-12-20T13:11:29.665Z,96588.72
2022-12-20T13:14:33.343Z,96592.19
2022-12-20T13:17:50.600Z,96604.31
2022-12-20T13:20:25.829Z,96594.59
2022-12-20T13:23:17.681Z,96594.84
2022-12-20T13:25:48.720Z,96592.41
2022-12-20T13:28:48.924Z,96578.63
2022-12-20T13:31:34.466Z,96585.72
2022-12-20T13:34:04.076Z,96593.00
2022-12-20T13:36:37.271Z,96589.75
2022-12-20T13:39:33.220Z,96579.25
2022-12-20T13:42:35.087Z,96565.91
2022-12-20T13:45:07.969Z,96564.88
2022-12-20T13:47:50.856Z,96562.06
2022-12-20T13:50:32.014Z,96556.16
2022-12-20T13:53:00.467Z,96556.59
2022-12-20T13:55:36.552Z,96552.91
2022-12-20T13:58:15.036Z,96544.66
2022-12-20T14:00:45.545Z,96546.88
2022-12-20T14:03:26.440Z,96545.63
2022-12-20T14:06:00.435Z,96545.06
2022-12-20T14:08:32.886Z,96545.84
2022-12-20T14:11:11.219Z,96543.63
2022-12-20T14:13:39.794Z,96532.50
2022-12-20T14:16:17.717Z,96547.28
2022-12-20T14:18:50.170Z,96538.97
2022-12-20T14:21:19.911Z,96534.34
2022-12-20T14:23:51.642Z,96541.00
2022-12-20T14:26:23.867Z,96544.41
2022-12-20T14:28:54.284Z,96535.94
2022-12-20T14:31:31.220Z,96529.03
2022-12-20T14:34:05.578Z,96524.81
2022-12-20T14:36:34.440Z,96522.19
2022-12-20T14:39:02.637Z,96526.00
2022-12-20T14:41:33.812Z,96525.41
2022-12-20T14:44:14.178Z,96536.31
2022-12-20T14:46:50.453Z,96548.47
2022-12-20T14:49:24.951Z,96539.38
2022-12-20T14:52:06.796Z,96529.03
2022-12-20T14:57:29.303Z,96527.84
2022-12-20T15:00:13.648Z,96518.34
2022-12-20T15:02:50.660Z,96505.19
2022-12-20T15:05:50.429Z,96496.28
2022-12-20T15:08:23.132Z,96487.38
2022-12-20T15:10:58.360Z,96490.19
2022-12-20T15:13:32.392Z,96494.25
2022-12-20T15:16:04.465Z,96489.81
2022-12-20T15:18:34.425Z,96491.03
2022-12-20T15:21:07.689Z,96492.22
2022-12-20T15:23:36.056Z,96502.13
2022-12-20T15:26:04.250Z,96500.53
2022-12-20T15:28:34.187Z,96506.19
2022-12-20T15:31:04.680Z,96512.31
2022-12-20T15:33:35.687Z,96506.41
2022-12-20T15:36:03.796Z,96513.66
2022-12-20T15:39:03.215Z,96508.41
2022-12-20T15:41:24.342Z,96502.13
2022-12-20T15:43:56.926Z,96498.72
2022-12-20T15:46:25.598Z,96505.59
2022-12-20T15:48:55.166Z,96499.72
2022-12-20T15:51:28.882Z,96488.19
2022-12-20T15:53:57.000Z,96498.31
2022-12-20T15:56:27.124Z,96501.16
2022-12-20T15:58:55.792Z,96506.41
2022-12-20T16:01:28.722Z,96508.78
2022-12-20T16:03:59.806Z,96506.97
2022-12-20T16:06:27.837Z,96512.66
2022-12-20T16:08:56.655Z,96509.63
2022-12-20T16:11:27.602Z,96502.09
2022-12-20T16:13:57.198Z,96510.44
2022-12-20T16:16:28.618Z,96510.84
2022-12-20T16:18:56.723Z,96507.41
2022-12-20T16:21:28.826Z,96502.75
2022-12-20T16:23:57.027Z,96504.34
2022-12-20T16:26:27.278Z,96513.47
2022-12-20T16:28:57.175Z,96509.22
2022-12-20T16:31:29.150Z,96504.75
2022-12-20T16:33:58.033Z,96506.03
2022-12-20T16:36:27.978Z,96501.97
2022-12-20T16:38:56.331Z,96501.97
2022-12-20T16:41:27.458Z,96507.00
2022-12-20T16:43:57.639Z,96507.22
2022-12-20T16:46:28.203Z,96510.47
2022-12-20T16:48:57.833Z,96511.25
2022-12-20T16:51:30.499Z,96509.63
2022-12-20T16:54:18.598Z,96510.44
2022-12-20T16:56:51.025Z,96509.63
2022-12-20T16:59:21.924Z,96502.75
2022-12-20T17:01:52.793Z,96507.41
2022-12-20T17:04:21.806Z,96498.31
2022-12-20T17:06:51.780Z,96503.56
2022-12-20T17:12:15.017Z,96494.69
2022-12-20T17:14:43.213Z,96494.44
2022-12-20T17:17:11.302Z,96495.44
2022-12-20T17:19:39.459Z,96492.59
2022-12-20T17:24:57.999Z,96482.50
2022-12-20T17:27:26.032Z,96474.59
2022-12-20T17:29:54.094Z,96483.69
2022-12-20T17:32:25.877Z,96493.41
2022-12-20T17:34:54.310Z,96488.13
2022-12-20T17:37:24.649Z,96487.94
2022-12-20T17:39:52.736Z,96479.41
2022-12-20T17:42:25.530Z,96479.00
2022-12-20T17:44:57.034Z,96479.63
2022-12-20T17:47:25.120Z,96476.38
2022-12-20T17:49:53.467Z,96466.06
2022-12-20T17:52:22.848Z,96465.44
2022-12-20T17:54:50.916Z,96463.84
2022-12-20T17:57:18.920Z,96472.75
2022-12-20T17:59:47.144Z,96465.44
2022-12-20T18:02:23.679Z,96449.88
2022-12-20T18:04:52.321Z,96462.44
2022-12-20T18:07:20.487Z,96458.56
2022-12-20T18:09:50.988Z,96447.41
2022-12-20T18:12:19.430Z,96444.41
2022-12-20T18:14:50.758Z,96440.94
2022-12-20T18:17:19.135Z,96462.97
2022-12-20T18:19:47.434Z,96470.66
2022-12-20T18:22:15.876Z,96474.31
2022-12-20T18:24:43.953Z,96467.44
2022-12-20T18:27:13.701Z,96471.91
2022-12-20T18:29:42.481Z,96469.25
2022-12-20T18:32:10.686Z,96470.09
2022-12-20T18:34:39.158Z,96469.88
2022-12-20T18:37:07.295Z,96467.00
2022-12-20T18:39:36.565Z,96452.09
2022-12-20T18:42:04.925Z,96458.38
2022-12-20T18:44:36.292Z,96455.75
2022-12-20T18:47:04.700Z,96459.81
2022-12-20T18:49:33.183Z,96465.44
2022-12-20T18:52:01.882Z,96470.91
2022-12-20T18:54:30.764Z,96460.59
2022-12-20T18:56:59.198Z,96455.13
2022-12-20T18:59:27.340Z,96453.72
2022-12-20T19:01:57.460Z,96457.19
2022-12-20T19:04:25.713Z,96454.91
2022-12-20T19:06:54.164Z,96458.38
2022-12-20T19:09:22.518Z,96455.75
2022-12-20T19:11:56.571Z,96450.06
2022-12-20T19:14:25.899Z,96452.09
2022-12-20T19:16:53.993Z,96456.94
2022-12-20T19:19:23.520Z,96456.72
2022-12-20T19:21:51.970Z,96457.75
2022-12-20T19:24:20.025Z,96453.09
2022-12-20T19:26:48.285Z,96455.53
2022-12-20T19:29:16.311Z,96453.31
2022-12-20T19:31:44.517Z,96441.97
2022-12-20T19:34:15.090Z,96450.88
2022-12-20T19:36:48.324Z,96433.50
2022-12-20T19:39:19.985Z,96429.22
2022-12-20T19:42:13.885Z,96431.25
2022-12-20T19:44:37.222Z,96437.13
2022-12-20T19:47:05.457Z,96428.00
2022-12-20T19:49:35.428Z,96428.25
2022-12-20T19:52:05.687Z,96424.97
2022-12-20T19:54:33.927Z,96432.06
2022-12-20T19:57:02.032Z,96432.84
2022-12-20T19:59:31.243Z,96436.50
2022-12-20T20:01:59.516Z,96441.56
2022-12-20T20:04:27.829Z,96437.69
2022-12-20T20:06:56.353Z,96438.06
2022-12-20T20:09:25.918Z,96429.59
2022-12-20T20:11:54.011Z,96423.31
2022-12-20T20:14:22.417Z,96434.44
2022-12-20T20:16:50.468Z,96431.03
2022-12-20T20:19:18.859Z,96440.75
2022-12-20T20:21:48.690Z,96436.13
2022-12-20T20:24:17.187Z,96438.75
2022-12-20T20:26:46.546Z,96432.28
2022-12-20T20:29:14.679Z,96438.53
2022-12-20T20:31:42.800Z,96445.22
2022-12-20T20:34:10.964Z,96445.63
2022-12-20T20:36:39.359Z,96451.69
2022-12-20T20:39:07.450Z,96458.59
2022-12-20T20:41:35.550Z,96463.03
2022-12-20T20:44:05.436Z,96465.88
2022-12-20T20:46:33.538Z,96468.50
2022-12-20T20:49:04.838Z,96473.97
2022-12-20T20:51:32.917Z,96460.81
2022-12-20T20:54:00.945Z,96469.09
2022-12-20T20:56:28.917Z,96468.72
2022-12-20T20:59:05.023Z,96477.41
2022-12-20T21:01:36.652Z,96473.34
2022-12-20T21:04:06.932Z,96477.78
2022-12-20T21:06:40.974Z,96468.91
2022-12-20T21:09:10.038Z,96474.38
2022-12-20T21:11:38.361Z,96487.09
2022-12-20T21:14:09.458Z,96493.19
2022-12-20T21:16:41.350Z,96491.13
2022-12-20T21:19:11.319Z,96476.63
2022-12-20T21:21:39.467Z,96485.72
2022-12-20T21:24:08.774Z,96484.69
2022-12-20T21:26:36.868Z,96458.78
2022-12-20T21:29:05.423Z,96451.47
2022-12-20T21:31:33.717Z,96454.53
2022-12-20T21:34:03.278Z,96461.63
2022-12-20T21:36:31.298Z,96464.63
2022-12-20T21:39:00.381Z,96461.38
2022-12-20T21:41:30.474Z,96440.84
2022-12-20T21:43:59.951Z,96444.59
2022-12-20T21:46:31.592Z,96444.59
2022-12-20T21:49:00.333Z,96435.19
2022-12-20T21:51:30.975Z,96439.13
2022-12-20T21:54:01.465Z,96424.56
2022-12-20T21:56:32.169Z,96427.06
2022-12-20T21:59:00.808Z,96439.09
2022-12-20T22:01:30.101Z,96425.97
2022-12-20T22:04:01.452Z,96440.59
2022-12-20T22:06:31.605Z,96437.41
2022-12-20T22:09:00.421Z,96445.72
2022-12-20T22:11:29.354Z,96457.66
2022-12-20T22:13:58.631Z,96471.13
2022-12-20T22:16:31.786Z,96470.31
2022-12-20T22:19:01.607Z,96476.78
2022-12-20T22:21:33.668Z,96462.66
2022-12-20T22:24:02.871Z,96462.59
2022-12-20T22:26:33.344Z,96449.44
2022-12-20T22:29:04.436Z,96446.81
2022-12-20T22:31:33.578Z,96455.53
2022-12-20T22:34:01.960Z,96452.69
2022-12-20T22:36:31.884Z,96450.91
2022-12-20T22:39:00.138Z,96460.03
2022-12-20T22:41:30.585Z,96477.00
2022-12-20T22:44:00.431Z,96469.97
2022-12-20T22:46:30.157Z,96465.69
2022-12-20T22:48:58.603Z,96464.28
2022-12-20T22:51:30.686Z,96461.66
2022-12-20T22:54:01.051Z,96453.13
2022-12-20T22:56:29.877Z,96454.59
2022-12-20T22:58:58.094Z,96452.16
2022-12-20T23:01:26.446Z,96442.69
2022-12-20T23:03:54.709Z,96440.03
2022-12-20T23:06:23.224Z,96445.47
2022-12-20T23:08:51.348Z,96451.19
2022-12-20T23:11:41.281Z,96453.41
2022-12-20T23:14:42.406Z,96449.00
2022-12-20T23:17:11.694Z,96457.63
2022-12-20T23:19:53.743Z,96446.91
2022-12-20T23:22:39.422Z,96444.91
2022-12-20T23:25:11.510Z,96439.63
2022-12-20T23:27:43.018Z,96441.63
2022-12-20T23:30:14.142Z,96426.69
2022-12-20T23:32:44.301Z,96423.84
2022-12-20T23:35:13.699Z,96431.56
2022-12-20T23:37:42.107Z,96423.44
2022-12-20T23:40:12.720Z,96428.09
2022-12-20T23:42:43.121Z,96434.38
2022-12-20T23:45:12.164Z,96435.78
2022-12-20T23:47:40.212Z,96433.19
2022-12-20T23:50:09.692Z,96432.78
2022-12-20T23:52:37.836Z,96429.13
2022-12-20T23:55:06.969Z,96426.06
2022-12-20T23:57:35.081Z,96418.19
